sensor_id;sensor_type;location;lat;lon;timestamp;P1;durP1;ratioP1;P2;durP2;ratioP2
24206;SDS011;12351;52.284;9.160;2023-05-23T00:01:23;28.65;;;24.32;;
24206;SDS011;12351;52.284;9.160;2023-05-23T00:04:10;26.40;;;22.50;;
24206;SDS011;12351;52.284;9.160;2023-05-23T00:07:00;26.15;;;22.32;;
24206;SDS011;12351;52.284;9.160;2023-05-23T00:09:49;29.02;;;23.18;;
24206;SDS011;12351;52.284;9.160;2023-05-23T00:12:37;29.02;;;23.07;;
24206;SDS011;12351;52.284;9.160;2023-05-23T00:15:26;26.77;;;21.87;;
24206;SDS011;12351;52.284;9.160;2023-05-23T00:18:14;27.67;;;22.50;;
24206;SDS011;12351;52.284;9.160;2023-05-23T00:21:02;27.95;;;22.70;;
24206;SDS011;12351;52.284;9.160;2023-05-23T00:23:50;24.98;;;21.15;;
24206;SDS011;12351;52.284;9.160;2023-05-23T00:26:39;26.42;;;21.57;;
24206;SDS011;12351;52.284;9.160;2023-05-23T00:29:26;27.82;;;20.72;;
24206;SDS011;12351;52.284;9.160;2023-05-23T00:32:14;25.62;;;20.20;;
24206;SDS011;12351;52.284;9.160;2023-05-23T00:35:02;27.07;;;19.95;;
24206;SDS011;12351;52.284;9.160;2023-05-23T00:37:51;23.62;;;19.23;;
24206;SDS011;12351;52.284;9.160;2023-05-23T00:40:39;21.33;;;18.25;;
24206;SDS011;12351;52.284;9.160;2023-05-23T00:43:27;23.65;;;17.35;;
24206;SDS011;12351;52.284;9.160;2023-05-23T00:46:15;18.92;;;16.80;;
24206;SDS011;12351;52.284;9.160;2023-05-23T00:49:03;22.95;;;18.10;;
24206;SDS011;12351;52.284;9.160;2023-05-23T00:51:52;19.67;;;16.93;;
24206;SDS011;12351;52.284;9.160;2023-05-23T00:54:41;22.10;;;17.35;;
24206;SDS011;12351;52.284;9.160;2023-05-23T00:57:30;20.20;;;17.37;;
24206;SDS011;12351;52.284;9.160;2023-05-23T01:00:20;19.27;;;15.55;;
24206;SDS011;12351;52.284;9.160;2023-05-23T01:03:09;19.10;;;15.80;;
24206;SDS011;12351;52.284;9.160;2023-05-23T01:05:58;23.22;;;17.12;;
24206;SDS011;12351;52.284;9.160;2023-05-23T01:08:47;20.25;;;16.70;;
24206;SDS011;12351;52.284;9.160;2023-05-23T01:11:39;21.10;;;15.83;;
24206;SDS011;12351;52.284;9.160;2023-05-23T01:17:21;17.85;;;15.88;;
24206;SDS011;12351;52.284;9.160;2023-05-23T01:20:10;19.12;;;15.68;;
24206;SDS011;12351;52.284;9.160;2023-05-23T01:28:44;21.48;;;16.10;;
24206;SDS011;12351;52.284;9.160;2023-05-23T01:31:35;19.85;;;16.05;;
24206;SDS011;12351;52.284;9.160;2023-05-23T01:34:24;21.10;;;14.85;;
24206;SDS011;12351;52.284;9.160;2023-05-23T01:37:11;17.35;;;15.03;;
24206;SDS011;12351;52.284;9.160;2023-05-23T01:40:02;258.68;;;43.02;;
24206;SDS011;12351;52.284;9.160;2023-05-23T01:42:51;19.65;;;15.20;;
24206;SDS011;12351;52.284;9.160;2023-05-23T01:45:42;17.92;;;15.53;;
24206;SDS011;12351;52.284;9.160;2023-05-23T01:48:30;20.55;;;15.30;;
24206;SDS011;12351;52.284;9.160;2023-05-23T01:51:20;22.52;;;15.50;;
24206;SDS011;12351;52.284;9.160;2023-05-23T01:54:09;19.32;;;15.58;;
24206;SDS011;12351;52.284;9.160;2023-05-23T01:57:01;20.60;;;15.55;;
24206;SDS011;12351;52.284;9.160;2023-05-23T01:59:50;20.65;;;15.38;;
24206;SDS011;12351;52.284;9.160;2023-05-23T02:02:38;21.30;;;16.67;;
24206;SDS011;12351;52.284;9.160;2023-05-23T02:05:27;22.25;;;16.55;;
24206;SDS011;12351;52.284;9.160;2023-05-23T02:08:15;22.37;;;16.90;;
24206;SDS011;12351;52.284;9.160;2023-05-23T02:11:03;20.35;;;16.40;;
24206;SDS011;12351;52.284;9.160;2023-05-23T02:13:52;22.62;;;17.67;;
24206;SDS011;12351;52.284;9.160;2023-05-23T02:16:41;21.95;;;15.58;;
24206;SDS011;12351;52.284;9.160;2023-05-23T02:19:29;20.85;;;17.02;;
24206;SDS011;12351;52.284;9.160;2023-05-23T02:22:21;23.18;;;17.07;;
24206;SDS011;12351;52.284;9.160;2023-05-23T02:25:08;20.35;;;16.45;;
24206;SDS011;12351;52.284;9.160;2023-05-23T02:27:57;20.68;;;16.50;;
24206;SDS011;12351;52.284;9.160;2023-05-23T02:30:45;24.80;;;16.20;;
24206;SDS011;12351;52.284;9.160;2023-05-23T02:33:34;23.65;;;16.75;;
24206;SDS011;12351;52.284;9.160;2023-05-23T02:36:21;23.25;;;17.48;;
24206;SDS011;12351;52.284;9.160;2023-05-23T02:39:09;19.20;;;15.43;;
24206;SDS011;12351;52.284;9.160;2023-05-23T02:41:57;21.40;;;16.73;;
24206;SDS011;12351;52.284;9.160;2023-05-23T02:44:46;20.17;;;14.87;;
24206;SDS011;12351;52.284;9.160;2023-05-23T02:47:34;19.90;;;14.35;;
24206;SDS011;12351;52.284;9.160;2023-05-23T02:50:23;19.10;;;14.05;;
24206;SDS011;12351;52.284;9.160;2023-05-23T02:53:10;20.35;;;14.53;;
24206;SDS011;12351;52.284;9.160;2023-05-23T02:55:59;17.57;;;14.50;;
24206;SDS011;12351;52.284;9.160;2023-05-23T02:58:47;15.72;;;13.20;;
24206;SDS011;12351;52.284;9.160;2023-05-23T03:01:35;18.55;;;13.15;;
24206;SDS011;12351;52.284;9.160;2023-05-23T03:04:23;16.32;;;11.85;;
24206;SDS011;12351;52.284;9.160;2023-05-23T03:07:11;17.70;;;13.10;;
24206;SDS011;12351;52.284;9.160;2023-05-23T03:10:01;17.92;;;13.43;;
24206;SDS011;12351;52.284;9.160;2023-05-23T03:12:49;15.80;;;12.85;;
24206;SDS011;12351;52.284;9.160;2023-05-23T03:15:37;16.02;;;12.73;;
24206;SDS011;12351;52.284;9.160;2023-05-23T03:18:25;13.80;;;11.38;;
24206;SDS011;12351;52.284;9.160;2023-05-23T03:21:14;13.18;;;10.28;;
24206;SDS011;12351;52.284;9.160;2023-05-23T03:24:02;12.55;;;9.88;;
24206;SDS011;12351;52.284;9.160;2023-05-23T03:26:50;12.58;;;9.08;;
24206;SDS011;12351;52.284;9.160;2023-05-23T03:29:38;11.75;;;9.03;;
24206;SDS011;12351;52.284;9.160;2023-05-23T03:32:26;12.58;;;9.50;;
24206;SDS011;12351;52.284;9.160;2023-05-23T03:35:14;11.65;;;8.73;;
24206;SDS011;12351;52.284;9.160;2023-05-23T03:38:03;11.48;;;9.13;;
24206;SDS011;12351;52.284;9.160;2023-05-23T03:40:50;12.18;;;9.00;;
24206;SDS011;12351;52.284;9.160;2023-05-23T03:43:38;16.40;;;9.48;;
24206;SDS011;12351;52.284;9.160;2023-05-23T03:46:26;13.35;;;9.10;;
24206;SDS011;12351;52.284;9.160;2023-05-23T03:49:14;11.33;;;8.43;;
24206;SDS011;12351;52.284;9.160;2023-05-23T03:52:02;11.70;;;8.20;;
24206;SDS011;12351;52.284;9.160;2023-05-23T03:54:50;10.85;;;8.38;;
24206;SDS011;12351;52.284;9.160;2023-05-23T03:57:38;11.22;;;8.68;;
24206;SDS011;12351;52.284;9.160;2023-05-23T04:00:26;11.43;;;8.45;;
24206;SDS011;12351;52.284;9.160;2023-05-23T04:03:15;12.80;;;8.35;;
24206;SDS011;12351;52.284;9.160;2023-05-23T04:06:03;11.70;;;8.28;;
24206;SDS011;12351;52.284;9.160;2023-05-23T04:08:52;11.20;;;8.13;;
24206;SDS011;12351;52.284;9.160;2023-05-23T04:11:40;11.22;;;7.80;;
24206;SDS011;12351;52.284;9.160;2023-05-23T04:14:29;9.75;;;7.97;;
24206;SDS011;12351;52.284;9.160;2023-05-23T04:17:19;12.90;;;8.38;;
24206;SDS011;12351;52.284;9.160;2023-05-23T04:20:08;11.43;;;8.38;;
24206;SDS011;12351;52.284;9.160;2023-05-23T04:22:58;14.20;;;8.35;;
24206;SDS011;12351;52.284;9.160;2023-05-23T04:25:45;12.85;;;8.50;;
24206;SDS011;12351;52.284;9.160;2023-05-23T04:28:34;14.13;;;9.78;;
24206;SDS011;12351;52.284;9.160;2023-05-23T04:31:22;13.68;;;9.03;;
24206;SDS011;12351;52.284;9.160;2023-05-23T04:34:10;15.30;;;9.70;;
24206;SDS011;12351;52.284;9.160;2023-05-23T04:36:59;15.40;;;9.43;;
24206;SDS011;12351;52.284;9.160;2023-05-23T04:39:48;15.13;;;9.13;;
24206;SDS011;12351;52.284;9.160;2023-05-23T04:42:36;15.03;;;9.78;;
24206;SDS011;12351;52.284;9.160;2023-05-23T04:45:25;17.75;;;10.45;;
24206;SDS011;12351;52.284;9.160;2023-05-23T04:48:13;14.75;;;9.65;;
24206;SDS011;12351;52.284;9.160;2023-05-23T04:51:03;16.50;;;9.68;;
24206;SDS011;12351;52.284;9.160;2023-05-23T04:53:52;18.62;;;10.65;;
24206;SDS011;12351;52.284;9.160;2023-05-23T04:56:40;15.65;;;10.32;;
24206;SDS011;12351;52.284;9.160;2023-05-23T04:59:28;18.67;;;12.18;;
24206;SDS011;12351;52.284;9.160;2023-05-23T05:02:17;19.73;;;11.90;;
24206;SDS011;12351;52.284;9.160;2023-05-23T05:05:04;20.45;;;12.03;;
24206;SDS011;12351;52.284;9.160;2023-05-23T05:07:53;20.52;;;13.03;;
24206;SDS011;12351;52.284;9.160;2023-05-23T05:10:41;20.60;;;13.00;;
24206;SDS011;12351;52.284;9.160;2023-05-23T05:13:29;20.68;;;13.65;;
24206;SDS011;12351;52.284;9.160;2023-05-23T05:16:17;19.92;;;13.03;;
24206;SDS011;12351;52.284;9.160;2023-05-23T05:19:05;20.35;;;13.13;;
24206;SDS011;12351;52.284;9.160;2023-05-23T05:21:52;20.97;;;14.07;;
24206;SDS011;12351;52.284;9.160;2023-05-23T05:24:41;21.07;;;14.55;;
24206;SDS011;12351;52.284;9.160;2023-05-23T05:27:29;25.57;;;14.75;;
24206;SDS011;12351;52.284;9.160;2023-05-23T05:30:17;22.22;;;14.38;;
24206;SDS011;12351;52.284;9.160;2023-05-23T05:33:05;23.55;;;14.78;;
24206;SDS011;12351;52.284;9.160;2023-05-23T05:35:53;22.05;;;14.78;;
24206;SDS011;12351;52.284;9.160;2023-05-23T05:38:41;20.48;;;14.20;;
24206;SDS011;12351;52.284;9.160;2023-05-23T05:41:29;22.27;;;14.75;;
24206;SDS011;12351;52.284;9.160;2023-05-23T05:44:17;22.25;;;14.03;;
24206;SDS011;12351;52.284;9.160;2023-05-23T05:47:05;23.83;;;14.43;;
24206;SDS011;12351;52.284;9.160;2023-05-23T05:49:53;24.10;;;15.70;;
24206;SDS011;12351;52.284;9.160;2023-05-23T05:52:41;23.25;;;14.47;;
24206;SDS011;12351;52.284;9.160;2023-05-23T05:55:29;26.07;;;15.50;;
24206;SDS011;12351;52.284;9.160;2023-05-23T05:58:17;22.32;;;14.10;;
24206;SDS011;12351;52.284;9.160;2023-05-23T06:01:04;20.15;;;14.28;;
24206;SDS011;12351;52.284;9.160;2023-05-23T06:03:53;19.82;;;13.60;;
24206;SDS011;12351;52.284;9.160;2023-05-23T06:06:41;24.10;;;14.58;;
24206;SDS011;12351;52.284;9.160;2023-05-23T06:09:29;23.80;;;15.03;;
24206;SDS011;12351;52.284;9.160;2023-05-23T06:12:17;25.37;;;13.90;;
24206;SDS011;12351;52.284;9.160;2023-05-23T06:15:07;22.93;;;14.00;;
24206;SDS011;12351;52.284;9.160;2023-05-23T06:17:57;21.10;;;13.10;;
24206;SDS011;12351;52.284;9.160;2023-05-23T06:20:45;19.45;;;12.70;;
24206;SDS011;12351;52.284;9.160;2023-05-23T06:23:33;20.35;;;12.82;;
24206;SDS011;12351;52.284;9.160;2023-05-23T06:26:21;22.60;;;13.03;;
24206;SDS011;12351;52.284;9.160;2023-05-23T06:29:08;23.38;;;13.13;;
24206;SDS011;12351;52.284;9.160;2023-05-23T06:32:00;24.55;;;13.65;;
24206;SDS011;12351;52.284;9.160;2023-05-23T06:34:48;26.20;;;13.60;;
24206;SDS011;12351;52.284;9.160;2023-05-23T06:37:36;19.75;;;11.73;;
24206;SDS011;12351;52.284;9.160;2023-05-23T06:40:25;19.87;;;12.35;;
24206;SDS011;12351;52.284;9.160;2023-05-23T06:43:13;16.27;;;11.33;;
24206;SDS011;12351;52.284;9.160;2023-05-23T06:46:01;21.00;;;11.95;;
24206;SDS011;12351;52.284;9.160;2023-05-23T06:48:49;17.48;;;10.40;;
24206;SDS011;12351;52.284;9.160;2023-05-23T06:51:38;16.05;;;10.43;;
24206;SDS011;12351;52.284;9.160;2023-05-23T06:54:25;17.85;;;11.53;;
24206;SDS011;12351;52.284;9.160;2023-05-23T06:57:14;17.02;;;10.80;;
24206;SDS011;12351;52.284;9.160;2023-05-23T07:00:02;18.87;;;10.72;;
24206;SDS011;12351;52.284;9.160;2023-05-23T07:02:51;16.65;;;10.95;;
24206;SDS011;12351;52.284;9.160;2023-05-23T07:05:39;18.27;;;10.15;;
24206;SDS011;12351;52.284;9.160;2023-05-23T07:08:27;19.25;;;10.05;;
24206;SDS011;12351;52.284;9.160;2023-05-23T07:11:15;14.18;;;8.90;;
24206;SDS011;12351;52.284;9.160;2023-05-23T07:14:05;12.40;;;8.88;;
24206;SDS011;12351;52.284;9.160;2023-05-23T07:16:52;13.35;;;8.75;;
24206;SDS011;12351;52.284;9.160;2023-05-23T07:19:41;14.98;;;8.40;;
24206;SDS011;12351;52.284;9.160;2023-05-23T07:22:29;12.68;;;9.20;;
24206;SDS011;12351;52.284;9.160;2023-05-23T07:25:17;15.03;;;8.75;;
24206;SDS011;12351;52.284;9.160;2023-05-23T07:28:07;18.00;;;9.93;;
24206;SDS011;12351;52.284;9.160;2023-05-23T07:30:55;13.45;;;9.20;;
24206;SDS011;12351;52.284;9.160;2023-05-23T07:33:44;20.75;;;11.10;;
24206;SDS011;12351;52.284;9.160;2023-05-23T07:36:31;18.15;;;10.80;;
24206;SDS011;12351;52.284;9.160;2023-05-23T07:39:20;16.95;;;10.55;;
24206;SDS011;12351;52.284;9.160;2023-05-23T07:42:09;16.85;;;10.68;;
24206;SDS011;12351;52.284;9.160;2023-05-23T07:44:57;17.57;;;11.38;;
24206;SDS011;12351;52.284;9.160;2023-05-23T07:47:46;18.48;;;10.28;;
24206;SDS011;12351;52.284;9.160;2023-05-23T07:50:34;15.13;;;10.18;;
24206;SDS011;12351;52.284;9.160;2023-05-23T07:53:23;20.52;;;10.68;;
24206;SDS011;12351;52.284;9.160;2023-05-23T07:56:10;17.55;;;10.88;;
24206;SDS011;12351;52.284;9.160;2023-05-23T07:59:00;16.20;;;10.55;;
24206;SDS011;12351;52.284;9.160;2023-05-23T08:01:48;18.55;;;11.28;;
24206;SDS011;12351;52.284;9.160;2023-05-23T08:04:36;23.50;;;11.93;;
24206;SDS011;12351;52.284;9.160;2023-05-23T08:07:25;21.27;;;12.03;;
24206;SDS011;12351;52.284;9.160;2023-05-23T08:10:14;19.37;;;12.15;;
24206;SDS011;12351;52.284;9.160;2023-05-23T08:13:01;20.25;;;11.90;;
24206;SDS011;12351;52.284;9.160;2023-05-23T08:15:50;14.63;;;9.10;;
24206;SDS011;12351;52.284;9.160;2023-05-23T08:18:38;13.88;;;8.85;;
24206;SDS011;12351;52.284;9.160;2023-05-23T08:21:26;19.73;;;8.38;;
24206;SDS011;12351;52.284;9.160;2023-05-23T08:24:14;14.58;;;8.90;;
24206;SDS011;12351;52.284;9.160;2023-05-23T08:27:02;17.50;;;8.25;;
24206;SDS011;12351;52.284;9.160;2023-05-23T08:29:51;15.13;;;8.08;;
24206;SDS011;12351;52.284;9.160;2023-05-23T08:32:40;13.80;;;7.47;;
24206;SDS011;12351;52.284;9.160;2023-05-23T08:35:29;17.42;;;6.85;;
24206;SDS011;12351;52.284;9.160;2023-05-23T08:38:18;9.63;;;6.28;;
24206;SDS011;12351;52.284;9.160;2023-05-23T08:41:06;9.90;;;5.83;;
24206;SDS011;12351;52.284;9.160;2023-05-23T08:43:57;10.82;;;5.30;;
24206;SDS011;12351;52.284;9.160;2023-05-23T08:46:45;10.53;;;4.87;;
24206;SDS011;12351;52.284;9.160;2023-05-23T08:49:34;7.45;;;3.72;;
24206;SDS011;12351;52.284;9.160;2023-05-23T08:52:24;7.10;;;3.67;;
24206;SDS011;12351;52.284;9.160;2023-05-23T08:55:13;8.05;;;4.62;;
24206;SDS011;12351;52.284;9.160;2023-05-23T08:58:03;8.70;;;4.20;;
24206;SDS011;12351;52.284;9.160;2023-05-23T09:00:51;7.25;;;3.95;;
24206;SDS011;12351;52.284;9.160;2023-05-23T09:03:40;8.23;;;3.37;;
24206;SDS011;12351;52.284;9.160;2023-05-23T09:06:29;7.78;;;3.37;;
24206;SDS011;12351;52.284;9.160;2023-05-23T09:09:17;4.00;;;3.20;;
24206;SDS011;12351;52.284;9.160;2023-05-23T09:12:05;3.83;;;2.42;;
24206;SDS011;12351;52.284;9.160;2023-05-23T09:14:55;5.50;;;2.22;;
24206;SDS011;12351;52.284;9.160;2023-05-23T09:17:43;3.80;;;1.90;;
24206;SDS011;12351;52.284;9.160;2023-05-23T09:20:32;2.33;;;1.65;;
24206;SDS011;12351;52.284;9.160;2023-05-23T09:23:20;4.75;;;1.67;;
24206;SDS011;12351;52.284;9.160;2023-05-23T09:26:08;3.37;;;1.60;;
24206;SDS011;12351;52.284;9.160;2023-05-23T09:28:58;1.95;;;1.60;;
24206;SDS011;12351;52.284;9.160;2023-05-23T09:31:47;1.62;;;1.30;;
24206;SDS011;12351;52.284;9.160;2023-05-23T09:34:35;2.75;;;1.40;;
24206;SDS011;12351;52.284;9.160;2023-05-23T09:40:16;2.33;;;1.35;;
24206;SDS011;12351;52.284;9.160;2023-05-23T09:43:04;2.27;;;1.60;;
24206;SDS011;12351;52.284;9.160;2023-05-23T09:45:52;3.00;;;1.62;;
24206;SDS011;12351;52.284;9.160;2023-05-23T09:51:32;4.47;;;2.22;;
24206;SDS011;12351;52.284;9.160;2023-05-23T09:54:21;5.80;;;2.40;;
24206;SDS011;12351;52.284;9.160;2023-05-23T09:57:09;3.42;;;2.30;;
24206;SDS011;12351;52.284;9.160;2023-05-23T09:59:59;5.78;;;2.67;;
24206;SDS011;12351;52.284;9.160;2023-05-23T10:08:34;8.85;;;4.42;;
24206;SDS011;12351;52.284;9.160;2023-05-23T10:14:14;7.67;;;4.70;;
24206;SDS011;12351;52.284;9.160;2023-05-23T10:17:06;11.75;;;4.97;;
24206;SDS011;12351;52.284;9.160;2023-05-23T10:19:57;10.00;;;5.00;;
24206;SDS011;12351;52.284;9.160;2023-05-23T10:22:47;7.90;;;4.37;;
24206;SDS011;12351;52.284;9.160;2023-05-23T10:25:35;11.22;;;4.72;;
24206;SDS011;12351;52.284;9.160;2023-05-23T10:28:23;9.55;;;4.60;;
24206;SDS011;12351;52.284;9.160;2023-05-23T10:31:11;8.15;;;4.00;;
24206;SDS011;12351;52.284;9.160;2023-05-23T10:45:24;12.43;;;4.37;;
24206;SDS011;12351;52.284;9.160;2023-05-23T10:53:55;12.82;;;4.95;;
24206;SDS011;12351;52.284;9.160;2023-05-23T10:56:43;10.23;;;4.65;;
24206;SDS011;12351;52.284;9.160;2023-05-23T10:59:31;9.93;;;5.62;;
24206;SDS011;12351;52.284;9.160;2023-05-23T11:10:54;12.25;;;5.75;;
24206;SDS011;12351;52.284;9.160;2023-05-23T11:19:26;13.05;;;5.87;;
24206;SDS011;12351;52.284;9.160;2023-05-23T11:22:15;11.30;;;5.35;;
24206;SDS011;12351;52.284;9.160;2023-05-23T11:25:06;13.98;;;5.17;;
24206;SDS011;12351;52.284;9.160;2023-05-23T11:27:55;11.93;;;4.80;;
24206;SDS011;12351;52.284;9.160;2023-05-23T11:30:43;10.15;;;5.17;;
24206;SDS011;12351;52.284;9.160;2023-05-23T11:33:35;10.88;;;4.37;;
24206;SDS011;12351;52.284;9.160;2023-05-23T11:36:22;11.38;;;4.25;;
24206;SDS011;12351;52.284;9.160;2023-05-23T11:39:11;9.08;;;4.00;;
24206;SDS011;12351;52.284;9.160;2023-05-23T11:42:01;9.73;;;4.12;;
24206;SDS011;12351;52.284;9.160;2023-05-23T11:44:49;9.53;;;4.22;;
24206;SDS011;12351;52.284;9.160;2023-05-23T11:47:40;13.05;;;4.35;;
24206;SDS011;12351;52.284;9.160;2023-05-23T11:50:27;9.10;;;3.65;;
24206;SDS011;12351;52.284;9.160;2023-05-23T11:53:15;11.12;;;4.05;;
24206;SDS011;12351;52.284;9.160;2023-05-23T11:56:06;9.43;;;3.65;;
24206;SDS011;12351;52.284;9.160;2023-05-23T11:58:54;10.35;;;3.70;;
24206;SDS011;12351;52.284;9.160;2023-05-23T12:01:43;10.80;;;4.50;;
24206;SDS011;12351;52.284;9.160;2023-05-23T12:04:31;9.90;;;3.30;;
24206;SDS011;12351;52.284;9.160;2023-05-23T12:07:22;10.10;;;2.85;;
24206;SDS011;12351;52.284;9.160;2023-05-23T12:10:10;9.53;;;2.70;;
24206;SDS011;12351;52.284;9.160;2023-05-23T12:13:00;10.10;;;2.90;;
24206;SDS011;12351;52.284;9.160;2023-05-23T12:15:52;11.00;;;3.02;;
24206;SDS011;12351;52.284;9.160;2023-05-23T12:18:41;8.73;;;3.50;;
24206;SDS011;12351;52.284;9.160;2023-05-23T12:24:20;10.18;;;3.47;;
24206;SDS011;12351;52.284;9.160;2023-05-23T12:27:09;11.40;;;3.30;;
24206;SDS011;12351;52.284;9.160;2023-05-23T12:32:48;9.83;;;3.00;;
24206;SDS011;12351;52.284;9.160;2023-05-23T12:35:36;15.65;;;3.62;;
24206;SDS011;12351;52.284;9.160;2023-05-23T12:38:27;8.78;;;3.08;;
24206;SDS011;12351;52.284;9.160;2023-05-23T12:41:16;10.75;;;3.08;;
24206;SDS011;12351;52.284;9.160;2023-05-23T12:44:05;12.68;;;2.98;;
24206;SDS011;12351;52.284;9.160;2023-05-23T12:46:53;13.90;;;3.40;;
24206;SDS011;12351;52.284;9.160;2023-05-23T12:49:41;12.73;;;3.33;;
24206;SDS011;12351;52.284;9.160;2023-05-23T12:52:31;13.03;;;2.83;;
24206;SDS011;12351;52.284;9.160;2023-05-23T12:55:20;10.72;;;3.15;;
24206;SDS011;12351;52.284;9.160;2023-05-23T12:58:08;10.78;;;3.12;;
24206;SDS011;12351;52.284;9.160;2023-05-23T13:00:57;9.85;;;3.00;;
24206;SDS011;12351;52.284;9.160;2023-05-23T13:03:45;12.78;;;3.10;;
24206;SDS011;12351;52.284;9.160;2023-05-23T13:06:33;9.55;;;3.00;;
24206;SDS011;12351;52.284;9.160;2023-05-23T13:09:21;9.10;;;2.85;;
24206;SDS011;12351;52.284;9.160;2023-05-23T13:12:09;11.45;;;3.02;;
24206;SDS011;12351;52.284;9.160;2023-05-23T13:14:59;11.65;;;3.05;;
24206;SDS011;12351;52.284;9.160;2023-05-23T13:17:47;9.88;;;3.12;;
24206;SDS011;12351;52.284;9.160;2023-05-23T13:20:36;9.50;;;3.20;;
24206;SDS011;12351;52.284;9.160;2023-05-23T13:23:24;10.98;;;3.40;;
24206;SDS011;12351;52.284;9.160;2023-05-23T13:26:11;12.10;;;3.05;;
24206;SDS011;12351;52.284;9.160;2023-05-23T13:29:00;9.08;;;3.17;;
24206;SDS011;12351;52.284;9.160;2023-05-23T13:31:47;10.00;;;3.22;;
24206;SDS011;12351;52.284;9.160;2023-05-23T13:34:36;7.55;;;3.22;;
24206;SDS011;12351;52.284;9.160;2023-05-23T13:37:24;10.38;;;3.47;;
24206;SDS011;12351;52.284;9.160;2023-05-23T13:43:03;11.97;;;2.95;;
24206;SDS011;12351;52.284;9.160;2023-05-23T13:45:52;9.93;;;2.83;;
24206;SDS011;12351;52.284;9.160;2023-05-23T13:48:40;13.65;;;3.22;;
24206;SDS011;12351;52.284;9.160;2023-05-23T13:51:28;8.50;;;3.47;;
24206;SDS011;12351;52.284;9.160;2023-05-23T13:54:17;14.13;;;2.92;;
24206;SDS011;12351;52.284;9.160;2023-05-23T13:57:04;12.30;;;3.15;;
24206;SDS011;12351;52.284;9.160;2023-05-23T13:59:53;10.88;;;3.20;;
24206;SDS011;12351;52.284;9.160;2023-05-23T14:02:41;10.08;;;2.67;;
24206;SDS011;12351;52.284;9.160;2023-05-23T14:05:28;10.50;;;3.55;;
24206;SDS011;12351;52.284;9.160;2023-05-23T14:08:17;8.73;;;3.10;;
24206;SDS011;12351;52.284;9.160;2023-05-23T14:11:04;9.90;;;3.00;;
24206;SDS011;12351;52.284;9.160;2023-05-23T14:13:52;10.78;;;3.20;;
24206;SDS011;12351;52.284;9.160;2023-05-23T14:16:40;9.43;;;2.83;;
24206;SDS011;12351;52.284;9.160;2023-05-23T14:19:28;10.28;;;2.70;;
24206;SDS011;12351;52.284;9.160;2023-05-23T14:22:16;10.75;;;2.98;;
24206;SDS011;12351;52.284;9.160;2023-05-23T14:25:03;10.23;;;3.20;;
24206;SDS011;12351;52.284;9.160;2023-05-23T14:27:52;9.30;;;2.95;;
24206;SDS011;12351;52.284;9.160;2023-05-23T14:30:40;8.88;;;3.00;;
24206;SDS011;12351;52.284;9.160;2023-05-23T14:33:28;9.50;;;2.90;;
24206;SDS011;12351;52.284;9.160;2023-05-23T14:36:16;9.98;;;3.12;;
24206;SDS011;12351;52.284;9.160;2023-05-23T14:39:04;9.38;;;2.92;;
24206;SDS011;12351;52.284;9.160;2023-05-23T14:41:53;9.13;;;2.72;;
24206;SDS011;12351;52.284;9.160;2023-05-23T14:44:41;8.70;;;2.53;;
24206;SDS011;12351;52.284;9.160;2023-05-23T14:47:29;6.22;;;2.62;;
24206;SDS011;12351;52.284;9.160;2023-05-23T14:50:17;8.98;;;3.02;;
24206;SDS011;12351;52.284;9.160;2023-05-23T14:53:04;10.38;;;3.10;;
24206;SDS011;12351;52.284;9.160;2023-05-23T14:55:52;7.03;;;2.50;;
24206;SDS011;12351;52.284;9.160;2023-05-23T14:58:41;11.08;;;2.80;;
24206;SDS011;12351;52.284;9.160;2023-05-23T15:01:30;6.67;;;2.62;;
24206;SDS011;12351;52.284;9.160;2023-05-23T15:04:18;7.83;;;2.55;;
24206;SDS011;12351;52.284;9.160;2023-05-23T15:07:05;8.93;;;2.62;;
24206;SDS011;12351;52.284;9.160;2023-05-23T15:09:54;13.93;;;2.80;;
24206;SDS011;12351;52.284;9.160;2023-05-23T15:12:42;9.08;;;2.70;;
24206;SDS011;12351;52.284;9.160;2023-05-23T15:15:30;8.70;;;2.67;;
24206;SDS011;12351;52.284;9.160;2023-05-23T15:18:19;7.85;;;2.50;;
24206;SDS011;12351;52.284;9.160;2023-05-23T15:21:07;8.85;;;2.87;;
24206;SDS011;12351;52.284;9.160;2023-05-23T15:23:59;6.00;;;2.80;;
24206;SDS011;12351;52.284;9.160;2023-05-23T15:26:47;8.35;;;2.55;;
24206;SDS011;12351;52.284;9.160;2023-05-23T15:29:34;7.33;;;2.50;;
24206;SDS011;12351;52.284;9.160;2023-05-23T15:32:23;11.65;;;2.12;;
24206;SDS011;12351;52.284;9.160;2023-05-23T15:35:11;10.82;;;2.90;;
24206;SDS011;12351;52.284;9.160;2023-05-23T15:38:00;6.78;;;2.37;;
24206;SDS011;12351;52.284;9.160;2023-05-23T15:40:48;8.78;;;2.65;;
24206;SDS011;12351;52.284;9.160;2023-05-23T15:43:37;10.00;;;2.60;;
24206;SDS011;12351;52.284;9.160;2023-05-23T15:46:25;8.40;;;2.50;;
24206;SDS011;12351;52.284;9.160;2023-05-23T15:49:12;12.58;;;2.45;;
24206;SDS011;12351;52.284;9.160;2023-05-23T15:52:01;10.95;;;2.60;;
24206;SDS011;12351;52.284;9.160;2023-05-23T15:54:49;8.03;;;2.15;;
24206;SDS011;12351;52.284;9.160;2023-05-23T15:57:37;6.12;;;1.87;;
24206;SDS011;12351;52.284;9.160;2023-05-23T16:00:24;5.60;;;2.20;;
24206;SDS011;12351;52.284;9.160;2023-05-23T16:03:12;6.95;;;2.20;;
24206;SDS011;12351;52.284;9.160;2023-05-23T16:06:01;7.83;;;2.83;;
24206;SDS011;12351;52.284;9.160;2023-05-23T16:08:50;10.60;;;2.50;;
24206;SDS011;12351;52.284;9.160;2023-05-23T16:11:38;7.30;;;2.45;;
24206;SDS011;12351;52.284;9.160;2023-05-23T16:14:26;8.73;;;2.37;;
24206;SDS011;12351;52.284;9.160;2023-05-23T16:17:15;9.25;;;2.08;;
24206;SDS011;12351;52.284;9.160;2023-05-23T16:20:04;10.30;;;2.75;;
24206;SDS011;12351;52.284;9.160;2023-05-23T16:22:53;8.43;;;2.42;;
24206;SDS011;12351;52.284;9.160;2023-05-23T16:25:41;9.65;;;2.52;;
24206;SDS011;12351;52.284;9.160;2023-05-23T16:28:29;7.60;;;2.67;;
24206;SDS011;12351;52.284;9.160;2023-05-23T16:31:17;6.05;;;2.30;;
24206;SDS011;12351;52.284;9.160;2023-05-23T16:34:06;7.17;;;2.08;;
24206;SDS011;12351;52.284;9.160;2023-05-23T16:36:54;9.50;;;2.35;;
24206;SDS011;12351;52.284;9.160;2023-05-23T16:39:42;7.33;;;2.08;;
24206;SDS011;12351;52.284;9.160;2023-05-23T16:42:30;6.28;;;2.00;;
24206;SDS011;12351;52.284;9.160;2023-05-23T16:45:17;8.43;;;2.15;;
24206;SDS011;12351;52.284;9.160;2023-05-23T16:48:06;7.28;;;2.42;;
24206;SDS011;12351;52.284;9.160;2023-05-23T16:50:55;8.55;;;2.35;;
24206;SDS011;12351;52.284;9.160;2023-05-23T16:53:44;4.62;;;1.60;;
24206;SDS011;12351;52.284;9.160;2023-05-23T16:56:32;8.50;;;1.80;;
24206;SDS011;12351;52.284;9.160;2023-05-23T16:59:21;8.85;;;2.02;;
24206;SDS011;12351;52.284;9.160;2023-05-23T17:02:09;8.73;;;2.27;;
24206;SDS011;12351;52.284;9.160;2023-05-23T17:04:59;7.78;;;2.22;;
24206;SDS011;12351;52.284;9.160;2023-05-23T17:07:48;7.35;;;2.10;;
24206;SDS011;12351;52.284;9.160;2023-05-23T17:10:36;8.55;;;2.12;;
24206;SDS011;12351;52.284;9.160;2023-05-23T17:13:26;6.10;;;1.65;;
24206;SDS011;12351;52.284;9.160;2023-05-23T17:16:14;7.55;;;2.15;;
24206;SDS011;12351;52.284;9.160;2023-05-23T17:19:03;9.43;;;2.02;;
24206;SDS011;12351;52.284;9.160;2023-05-23T17:21:50;8.88;;;1.92;;
24206;SDS011;12351;52.284;9.160;2023-05-23T17:24:39;8.98;;;1.90;;
24206;SDS011;12351;52.284;9.160;2023-05-23T17:27:27;5.25;;;1.85;;
24206;SDS011;12351;52.284;9.160;2023-05-23T17:30:15;6.58;;;1.82;;
24206;SDS011;12351;52.284;9.160;2023-05-23T17:33:03;13.38;;;6.42;;
24206;SDS011;12351;52.284;9.160;2023-05-23T17:35:51;54.75;;;24.67;;
24206;SDS011;12351;52.284;9.160;2023-05-23T17:38:40;25.17;;;13.30;;
24206;SDS011;12351;52.284;9.160;2023-05-23T17:41:27;14.50;;;7.80;;